createdAt,value
2023-01-25T00:00:08.121Z,304.40
2023-01-25T00:02:34.872Z,529.92
2023-01-25T00:05:01.659Z,309.08
2023-01-25T00:07:28.373Z,512.38
2023-01-25T00:09:55.204Z,284.88
2023-01-25T00:12:21.922Z,200.45
2023-01-25T00:14:48.573Z,648.50
2023-01-25T00:17:15.356Z,289.17
2023-01-25T00:19:42.022Z,148.50
2023-01-25T00:22:08.946Z,285.02
2023-01-25T00:24:36.926Z,291.55
2023-01-25T00:27:03.920Z,304.83
2023-01-25T00:29:30.659Z,172.68
2023-01-25T00:31:57.386Z,402.60
2023-01-25T00:34:27.171Z,338.73
2023-01-25T00:37:28.661Z,482.77
2023-01-25T00:39:55.504Z,353.60
2023-01-25T00:42:23.418Z,483.38
2023-01-25T00:44:50.228Z,419.42
2023-01-25T00:47:17.157Z,308.05
2023-01-25T00:49:44.779Z,627.97
2023-01-25T00:52:11.831Z,645.90
2023-01-25T00:54:38.821Z,442.88
2023-01-25T00:57:05.662Z,671.28
2023-01-25T00:59:32.488Z,512.90
2023-01-25T01:01:59.226Z,616.40
2023-01-25T01:04:26.140Z,831.25
2023-01-25T01:06:53.914Z,718.63
2023-01-25T01:09:21.573Z,557.88
2023-01-25T01:11:48.500Z,860.72
2023-01-25T01:14:15.241Z,962.17
2023-01-25T01:16:42.377Z,977.67
2023-01-25T01:19:09.163Z,322.83
2023-01-25T01:21:36.212Z,559.95
2023-01-25T01:24:03.031Z,495.92
2023-01-25T01:26:29.756Z,538.55
2023-01-25T01:28:57.513Z,304.02
2023-01-25T01:31:24.690Z,400.60
2023-01-25T01:33:53.455Z,428.92
2023-01-25T01:36:22.627Z,349.52
2023-01-25T01:38:49.672Z,422.88
2023-01-25T01:41:17.167Z,568.42
2023-01-25T01:43:43.984Z,507.95
2023-01-25T01:46:53.111Z,424.27
2023-01-25T01:49:26.638Z,115.88
2023-01-25T01:51:59.140Z,398.20
2023-01-25T01:54:38.278Z,736.13
2023-01-25T01:57:08.608Z,568.80
2023-01-25T01:59:52.110Z,651.38
2023-01-25T02:02:18.813Z,212.52
2023-01-25T02:04:47.188Z,436.42
2023-01-25T02:07:17.864Z,486.48
2023-01-25T02:09:44.615Z,437.63
2023-01-25T02:12:11.834Z,544.72
2023-01-25T02:14:41.599Z,363.50
2023-01-25T02:17:10.893Z,635.33
2023-01-25T02:19:51.161Z,403.52
2023-01-25T02:22:22.863Z,356.40
2023-01-25T02:25:03.090Z,217.05
2023-01-25T02:27:29.839Z,544.55
2023-01-25T02:29:56.854Z,121.00
2023-01-25T02:32:23.641Z,304.80
2023-01-25T02:34:50.345Z,189.85
2023-01-25T02:37:17.187Z,188.45
2023-01-25T02:39:44.175Z,334.33
2023-01-25T02:42:10.827Z,601.78
2023-01-25T02:44:38.083Z,327.10
2023-01-25T02:47:04.734Z,553.25
2023-01-25T02:49:31.423Z,274.75
2023-01-25T02:51:58.063Z,341.23
2023-01-25T02:54:28.609Z,536.40
2023-01-25T02:56:55.649Z,516.33
2023-01-25T02:59:22.917Z,458.23
2023-01-25T03:01:50.122Z,435.73
2023-01-25T03:04:17.276Z,159.77
2023-01-25T03:06:43.998Z,374.00
2023-01-25T03:09:11.414Z,648.97
2023-01-25T03:11:38.079Z,428.23
2023-01-25T03:14:05.110Z,481.35
2023-01-25T03:16:32.504Z,544.50
2023-01-25T03:18:59.290Z,471.98
2023-01-25T03:21:26.193Z,558.03
2023-01-25T03:24:01.260Z,533.72
2023-01-25T03:26:29.019Z,518.30
2023-01-25T03:28:55.725Z,422.58
2023-01-25T03:31:22.643Z,578.15
2023-01-25T03:33:49.767Z,555.47
2023-01-25T03:36:16.674Z,220.45
2023-01-25T03:38:43.388Z,393.42
2023-01-25T03:41:12.234Z,318.52
2023-01-25T03:43:39.564Z,562.30
2023-01-25T03:46:06.445Z,415.02
2023-01-25T03:48:33.192Z,490.48
2023-01-25T03:51:00.533Z,236.65
2023-01-25T03:53:32.077Z,323.88
2023-01-25T03:56:01.759Z,591.63
2023-01-25T03:58:29.528Z,766.13
2023-01-25T04:00:58.074Z,229.75
2023-01-25T04:03:25.536Z,508.45
2023-01-25T04:05:53.542Z,595.88
2023-01-25T04:08:20.527Z,631.78
2023-01-25T04:11:00.221Z,586.25
2023-01-25T04:13:27.105Z,410.70
2023-01-25T04:15:53.847Z,280.48
2023-01-25T04:18:20.579Z,458.52
2023-01-25T04:20:55.390Z,259.90
2023-01-25T04:25:56.216Z,135.13
2023-01-25T04:28:23.482Z,373.40
2023-01-25T04:30:50.222Z,346.75
2023-01-25T04:33:16.923Z,131.90
2023-01-25T04:35:44.996Z,300.17
2023-01-25T04:38:12.281Z,446.83
2023-01-25T04:40:39.325Z,452.30
2023-01-25T04:43:06.507Z,345.90
2023-01-25T04:45:33.676Z,109.50
2023-01-25T04:48:03.560Z,298.92
2023-01-25T04:50:30.669Z,357.58
2023-01-25T04:52:57.330Z,173.38
2023-01-25T04:55:23.990Z,349.27
2023-01-25T04:57:51.137Z,41.95
2023-01-25T05:00:18.799Z,234.48
2023-01-25T05:02:45.744Z,172.18
2023-01-25T05:05:12.870Z,340.20
2023-01-25T05:07:39.737Z,284.50
2023-01-25T05:10:07.400Z,576.63
2023-01-25T05:12:34.011Z,488.27
2023-01-25T05:15:00.753Z,267.00
2023-01-25T05:17:27.421Z,201.85
2023-01-25T05:19:54.069Z,87.30
2023-01-25T05:22:21.817Z,78.90
2023-01-25T05:24:48.606Z,229.70
2023-01-25T05:27:19.914Z,128.60
2023-01-25T05:29:46.831Z,172.23
2023-01-25T05:32:19.651Z,463.80
2023-01-25T05:34:46.526Z,256.92
2023-01-25T05:37:16.743Z,346.77
2023-01-25T05:39:43.494Z,346.35
2023-01-25T05:42:19.345Z,178.20
2023-01-25T05:44:47.775Z,103.25
2023-01-25T05:47:16.568Z,311.25
2023-01-25T05:49:43.712Z,114.25
2023-01-25T05:52:17.474Z,358.55
2023-01-25T05:54:44.135Z,283.25
2023-01-25T05:57:10.972Z,214.73
2023-01-25T05:59:37.637Z,275.60
2023-01-25T06:02:04.289Z,463.60
2023-01-25T06:04:30.963Z,198.48
2023-01-25T06:06:57.843Z,61.95
2023-01-25T06:09:24.636Z,102.95
2023-01-25T06:11:51.295Z,56.70
2023-01-25T06:14:18.087Z,59.28
2023-01-25T06:16:44.740Z,66.70
2023-01-25T06:19:13.481Z,65.20
2023-01-25T06:21:40.195Z,31.13
2023-01-25T06:24:07.375Z,59.33
2023-01-25T06:26:34.488Z,128.05
2023-01-25T06:29:01.186Z,35.47
2023-01-25T06:31:28.012Z,31.60
2023-01-25T06:33:54.864Z,24.38
2023-01-25T06:36:22.586Z,55.38
2023-01-25T06:38:53.133Z,30.13
2023-01-25T06:41:20.446Z,31.70
2023-01-25T06:43:48.451Z,35.80
2023-01-25T06:46:15.205Z,32.72
2023-01-25T06:48:42.997Z,34.22
2023-01-25T06:51:12.235Z,24.17
2023-01-25T06:53:41.478Z,21.90
2023-01-25T06:56:21.405Z,60.63
2023-01-25T06:58:49.127Z,113.78
2023-01-25T07:01:21.555Z,129.95
2023-01-25T07:03:52.848Z,62.63
2023-01-25T07:06:20.297Z,32.10
2023-01-25T07:08:47.269Z,29.25
2023-01-25T07:11:14.735Z,47.88
2023-01-25T07:13:42.664Z,92.93
2023-01-25T07:16:13.108Z,28.40
2023-01-25T07:18:40.485Z,31.48
2023-01-25T07:21:18.341Z,31.23
2023-01-25T07:23:45.162Z,52.50
2023-01-25T07:26:17.369Z,121.13
2023-01-25T07:28:44.936Z,116.25
2023-01-25T07:31:11.859Z,127.32
2023-01-25T07:33:38.524Z,53.17
2023-01-25T07:36:07.409Z,37.58
2023-01-25T07:38:34.544Z,39.75
2023-01-25T07:41:01.272Z,30.45
2023-01-25T07:43:28.061Z,37.58
2023-01-25T07:46:12.682Z,32.00
2023-01-25T07:48:41.123Z,36.95
2023-01-25T07:51:22.310Z,97.30
2023-01-25T07:53:54.098Z,55.90
2023-01-25T07:56:22.799Z,52.15
2023-01-25T07:58:49.538Z,44.17
2023-01-25T08:01:18.314Z,27.65
2023-01-25T08:03:45.980Z,70.40
2023-01-25T08:06:12.971Z,54.33
2023-01-25T08:08:48.096Z,60.03
2023-01-25T08:11:21.093Z,56.08
2023-01-25T08:13:49.634Z,33.78
2023-01-25T08:16:18.112Z,35.80
2023-01-25T08:18:51.467Z,133.00
2023-01-25T08:21:18.650Z,73.32
2023-01-25T08:23:45.660Z,43.22
2023-01-25T08:26:14.596Z,44.28
2023-01-25T08:28:41.235Z,43.47
2023-01-25T08:31:10.224Z,57.22
2023-01-25T08:33:37.200Z,97.43
2023-01-25T08:36:04.466Z,80.78
2023-01-25T08:38:31.562Z,37.05
2023-01-25T08:41:06.299Z,30.48
2023-01-25T08:43:33.019Z,41.67
2023-01-25T08:45:59.767Z,56.90
2023-01-25T08:48:26.440Z,36.55
2023-01-25T08:50:53.404Z,76.97
2023-01-25T08:53:20.361Z,153.20
2023-01-25T08:55:47.321Z,40.58
2023-01-25T08:58:16.057Z,35.65
2023-01-25T09:00:43.807Z,35.00
2023-01-25T09:03:11.709Z,74.43
2023-01-25T09:05:39.590Z,39.35
2023-01-25T09:08:08.021Z,38.38
2023-01-25T09:10:34.866Z,113.97
2023-01-25T09:13:01.665Z,81.78
2023-01-25T09:15:28.573Z,98.07
2023-01-25T09:17:56.613Z,36.35
2023-01-25T09:20:23.873Z,134.10
2023-01-25T09:22:50.553Z,128.95
2023-01-25T09:25:17.536Z,81.85
2023-01-25T09:27:44.229Z,196.35
2023-01-25T09:30:18.187Z,61.35
2023-01-25T09:32:45.942Z,363.33
2023-01-25T09:35:12.681Z,166.35
2023-01-25T09:37:39.362Z,170.90
2023-01-25T09:40:07.528Z,174.00
2023-01-25T09:42:58.754Z,155.48
2023-01-25T09:45:32.708Z,114.97
2023-01-25T09:48:10.921Z,116.47
2023-01-25T09:50:46.816Z,375.17
2023-01-25T09:53:31.743Z,184.98
2023-01-25T09:56:21.618Z,207.63
2023-01-25T09:58:51.497Z,221.90
2023-01-25T10:01:32.849Z,171.50
2023-01-25T10:04:11.002Z,101.88
2023-01-25T10:06:44.018Z,95.55
2023-01-25T10:09:36.281Z,107.43
2023-01-25T10:12:15.571Z,99.53
2023-01-25T10:14:42.551Z,36.20
2023-01-25T10:17:32.139Z,44.75
2023-01-25T10:20:33.873Z,48.70
2023-01-25T10:23:36.947Z,121.82
2023-01-25T10:26:24.883Z,116.05
2023-01-25T10:29:13.098Z,266.60
2023-01-25T10:31:54.025Z,191.45
2023-01-25T10:34:31.738Z,74.28
2023-01-25T10:37:03.419Z,114.82
2023-01-25T10:39:31.224Z,125.18
2023-01-25T10:42:06.885Z,448.35
2023-01-25T10:44:34.536Z,95.80
2023-01-25T10:47:29.468Z,263.50
2023-01-25T10:49:58.251Z,335.38
2023-01-25T10:52:31.054Z,147.20
2023-01-25T10:55:18.627Z,406.77
2023-01-25T10:57:49.246Z,352.70
2023-01-25T11:00:31.935Z,220.85
2023-01-25T11:02:58.747Z,290.60
2023-01-25T11:05:31.179Z,310.02
2023-01-25T11:07:58.973Z,295.65
2023-01-25T11:10:29.800Z,137.05
2023-01-25T11:13:15.354Z,155.20
2023-01-25T11:15:44.877Z,75.97
2023-01-25T11:18:25.408Z,88.25
2023-01-25T11:21:18.383Z,60.03
2023-01-25T11:24:13.176Z,56.00
2023-01-25T11:26:40.951Z,178.90
2023-01-25T11:29:16.717Z,59.85
2023-01-25T11:31:46.667Z,227.40
2023-01-25T11:34:16.482Z,680.90
2023-01-25T11:37:10.910Z,509.75
2023-01-25T11:39:59.640Z,180.73
2023-01-25T11:42:46.643Z,48.72
2023-01-25T11:45:19.300Z,111.38
2023-01-25T11:48:07.330Z,165.85
2023-01-25T11:51:07.093Z,193.73
2023-01-25T11:54:07.472Z,58.22
2023-01-25T11:57:00.796Z,63.33
2023-01-25T11:59:46.056Z,90.30
2023-01-25T12:05:21.669Z,180.47
2023-01-25T12:08:13.442Z,154.30
2023-01-25T12:10:43.537Z,232.18
2023-01-25T12:13:30.433Z,313.67
2023-01-25T12:16:02.269Z,238.50
2023-01-25T12:18:48.491Z,92.80
2023-01-25T12:21:41.465Z,317.83
2023-01-25T12:24:17.928Z,316.88
2023-01-25T12:27:07.357Z,179.18
2023-01-25T12:29:46.307Z,181.98
2023-01-25T12:32:26.663Z,235.80
2023-01-25T12:35:04.394Z,633.83
2023-01-25T12:37:38.281Z,445.73
2023-01-25T12:40:20.560Z,465.58
2023-01-25T12:42:58.958Z,176.00
2023-01-25T12:45:32.509Z,157.85
2023-01-25T12:48:03.507Z,269.27
2023-01-25T12:50:34.921Z,225.38
2023-01-25T12:53:17.685Z,146.63
2023-01-25T12:55:44.775Z,111.15
2023-01-25T12:58:37.050Z,68.85
2023-01-25T13:01:40.808Z,60.00
2023-01-25T13:04:17.623Z,203.50
2023-01-25T13:07:01.315Z,256.23
2023-01-25T13:09:33.607Z,104.55
2023-01-25T13:12:03.717Z,211.15
2023-01-25T13:14:38.834Z,109.55
2023-01-25T13:17:11.561Z,201.43
2023-01-25T13:19:41.787Z,205.23
2023-01-25T13:22:11.036Z,111.72
2023-01-25T13:25:02.902Z,132.40
2023-01-25T13:27:31.172Z,210.40
2023-01-25T13:30:03.813Z,61.65
2023-01-25T13:32:33.549Z,542.60
2023-01-25T13:35:01.643Z,252.98
2023-01-25T13:37:42.501Z,78.57
2023-01-25T13:40:31.795Z,187.88
2023-01-25T13:43:03.771Z,42.55
2023-01-25T13:45:34.534Z,66.38
2023-01-25T13:48:11.492Z,366.60
2023-01-25T13:50:44.257Z,105.50
2023-01-25T13:53:18.453Z,149.77
2023-01-25T13:55:47.291Z,277.67
2023-01-25T13:58:23.707Z,263.83
2023-01-25T14:00:54.589Z,522.22
2023-01-25T14:03:49.449Z,285.38
2023-01-25T14:06:22.238Z,521.13
2023-01-25T14:08:49.589Z,464.60
2023-01-25T14:11:25.321Z,302.88
2023-01-25T14:14:16.050Z,327.33
2023-01-25T14:16:42.817Z,244.50
2023-01-25T14:19:26.136Z,470.35
2023-01-25T14:22:14.007Z,245.98
2023-01-25T14:24:40.871Z,225.63
2023-01-25T14:27:13.198Z,344.70
2023-01-25T14:29:40.124Z,153.20
2023-01-25T14:32:06.996Z,247.18
2023-01-25T14:34:33.803Z,529.88
2023-01-25T14:37:20.815Z,415.60
2023-01-25T14:39:49.535Z,56.20
2023-01-25T14:42:16.788Z,127.97
2023-01-25T14:44:44.517Z,212.98
2023-01-25T14:47:31.428Z,357.58
2023-01-25T14:50:32.513Z,841.88
2023-01-25T14:53:06.487Z,211.85
2023-01-25T14:55:33.246Z,262.40
2023-01-25T14:58:00.940Z,276.70
2023-01-25T15:00:31.756Z,510.33
2023-01-25T15:03:00.282Z,249.77
2023-01-25T15:05:35.113Z,127.05
2023-01-25T15:10:36.812Z,426.20
2023-01-25T15:13:15.322Z,526.67
2023-01-25T15:16:02.870Z,460.52
2023-01-25T15:18:48.600Z,447.52
2023-01-25T15:21:23.890Z,374.35
2023-01-25T15:23:51.335Z,88.53
2023-01-25T15:26:22.498Z,246.35
2023-01-25T15:28:51.429Z,172.93
2023-01-25T15:31:31.361Z,257.90
2023-01-25T15:33:59.961Z,434.77
2023-01-25T15:36:27.164Z,104.25
2023-01-25T15:38:54.251Z,516.63
2023-01-25T15:41:21.284Z,76.28
2023-01-25T15:43:48.637Z,247.20
2023-01-25T15:46:21.777Z,394.58
2023-01-25T15:48:49.812Z,235.02
2023-01-25T15:51:16.716Z,285.15
2023-01-25T15:53:43.615Z,167.60
2023-01-25T15:56:14.184Z,246.48
2023-01-25T15:58:43.157Z,188.32
2023-01-25T16:01:10.077Z,303.55
2023-01-25T16:03:36.857Z,280.35
2023-01-25T16:06:07.694Z,259.85
2023-01-25T16:08:37.145Z,151.50
2023-01-25T16:11:03.903Z,106.28
2023-01-25T16:13:30.565Z,89.68
2023-01-25T16:15:57.426Z,67.70
2023-01-25T16:18:24.101Z,344.65
2023-01-25T16:20:50.975Z,75.10
2023-01-25T16:23:17.666Z,146.68
2023-01-25T16:25:47.258Z,133.48
2023-01-25T16:28:15.477Z,226.73
2023-01-25T16:30:44.993Z,89.70
2023-01-25T16:33:12.067Z,368.33
2023-01-25T16:35:38.779Z,322.05
2023-01-25T16:38:05.490Z,165.27
2023-01-25T16:40:39.658Z,203.43
2023-01-25T16:43:06.568Z,202.75
2023-01-25T16:45:33.279Z,244.77
2023-01-25T16:48:01.710Z,183.88
2023-01-25T16:50:28.438Z,257.23
2023-01-25T16:52:56.193Z,121.07
2023-01-25T16:55:23.105Z,58.50
2023-01-25T16:57:50.907Z,142.90
2023-01-25T17:00:17.991Z,271.42
2023-01-25T17:02:58.351Z,96.07
2023-01-25T17:05:33.784Z,172.85
2023-01-25T17:08:00.551Z,199.88
2023-01-25T17:10:28.888Z,232.75
2023-01-25T17:12:55.572Z,176.75
2023-01-25T17:15:22.246Z,197.48
2023-01-25T17:17:49.102Z,381.77
2023-01-25T17:20:16.178Z,146.18
2023-01-25T17:22:44.406Z,177.80
2023-01-25T17:25:11.169Z,169.60
2023-01-25T17:27:38.447Z,163.70
2023-01-25T17:30:06.040Z,353.27
2023-01-25T17:32:32.860Z,111.18
2023-01-25T17:35:02.592Z,69.15
2023-01-25T17:37:29.299Z,99.18
2023-01-25T17:39:56.173Z,103.72
2023-01-25T17:42:22.966Z,103.20
2023-01-25T17:44:49.639Z,194.50
2023-01-25T17:47:16.336Z,87.70
2023-01-25T17:49:43.225Z,104.82
2023-01-25T17:52:09.892Z,165.10
2023-01-25T17:54:36.630Z,86.57
2023-01-25T17:57:03.392Z,106.45
2023-01-25T17:59:30.269Z,246.50
2023-01-25T18:01:57.854Z,167.20
2023-01-25T18:04:25.446Z,113.03
2023-01-25T18:06:52.188Z,106.07
2023-01-25T18:09:19.008Z,358.70
2023-01-25T18:11:45.927Z,75.80
2023-01-25T18:14:17.065Z,131.63
2023-01-25T18:16:44.706Z,257.45
2023-01-25T18:19:11.727Z,248.60
2023-01-25T18:21:39.018Z,227.52
2023-01-25T18:24:20.707Z,191.60
2023-01-25T18:26:47.484Z,76.95
2023-01-25T18:29:14.126Z,69.60
2023-01-25T18:31:41.109Z,101.00
2023-01-25T18:34:07.851Z,96.80
2023-01-25T18:36:34.613Z,81.47
2023-01-25T18:39:01.473Z,73.22
2023-01-25T18:41:28.182Z,102.32
2023-01-25T18:43:56.630Z,121.75
2023-01-25T18:46:23.591Z,125.60
2023-01-25T18:48:51.183Z,80.60
2023-01-25T18:51:18.002Z,191.95
2023-01-25T18:53:47.452Z,102.72
2023-01-25T18:56:17.093Z,69.57
2023-01-25T18:58:44.312Z,160.20
2023-01-25T19:01:21.804Z,181.95
2023-01-25T19:03:49.436Z,183.88
2023-01-25T19:06:16.540Z,86.35
2023-01-25T19:08:46.395Z,87.43
2023-01-25T19:11:15.008Z,145.00
2023-01-25T19:13:42.572Z,74.30
2023-01-25T19:16:17.326Z,103.60
2023-01-25T19:18:47.014Z,52.38
2023-01-25T19:21:20.975Z,138.45
2023-01-25T19:23:47.867Z,117.60
2023-01-25T19:26:17.101Z,49.78
2023-01-25T19:28:45.643Z,58.05
2023-01-25T19:31:13.951Z,84.97
2023-01-25T19:33:41.268Z,79.43
2023-01-25T19:36:12.952Z,71.60
2023-01-25T19:38:40.330Z,74.97
2023-01-25T19:41:16.751Z,141.52
2023-01-25T19:43:43.753Z,45.70
2023-01-25T19:46:12.666Z,56.55
2023-01-25T19:48:40.786Z,49.55
2023-01-25T19:51:11.872Z,60.63
2023-01-25T19:53:39.963Z,104.30
2023-01-25T19:56:08.320Z,73.70
2023-01-25T19:58:35.460Z,104.70
2023-01-25T20:01:10.212Z,303.35
2023-01-25T20:03:37.451Z,222.35
2023-01-25T20:06:06.948Z,399.20
2023-01-25T20:08:36.271Z,189.00
2023-01-25T20:11:17.870Z,129.77
2023-01-25T20:13:44.756Z,265.83
2023-01-25T20:16:12.181Z,110.35
2023-01-25T20:18:39.515Z,116.75
2023-01-25T20:21:20.887Z,282.70
2023-01-25T20:23:56.128Z,161.85
2023-01-25T20:26:25.176Z,110.68
2023-01-25T20:28:53.468Z,242.85
2023-01-25T20:31:22.400Z,224.60
2023-01-25T20:33:50.264Z,308.90
2023-01-25T20:36:17.575Z,333.10
2023-01-25T20:38:44.628Z,188.80
2023-01-25T20:41:14.170Z,116.28
2023-01-25T20:43:48.987Z,79.85
2023-01-25T20:48:43.013Z,81.75
2023-01-25T20:51:12.866Z,231.68
2023-01-25T20:53:41.202Z,1147.65
2023-01-25T20:56:08.855Z,686.50
2023-01-25T20:58:35.868Z,492.95
2023-01-25T21:01:02.780Z,209.50
2023-01-25T21:03:30.201Z,743.35
2023-01-25T21:05:58.633Z,525.50
2023-01-25T21:08:25.817Z,244.85
2023-01-25T21:10:55.077Z,369.00
2023-01-25T21:13:22.447Z,169.02
2023-01-25T21:16:00.100Z,122.60
2023-01-25T21:18:32.132Z,66.13
2023-01-25T21:21:06.040Z,53.50
2023-01-25T21:23:34.147Z,45.25
2023-01-25T21:26:02.611Z,57.75
2023-01-25T21:28:29.509Z,136.23
2023-01-25T21:30:56.307Z,76.85
2023-01-25T21:33:23.147Z,66.53
2023-01-25T21:35:54.305Z,78.07
2023-01-25T21:38:21.391Z,86.13
2023-01-25T21:40:48.099Z,73.65
2023-01-25T21:43:17.829Z,63.70
2023-01-25T21:46:03.674Z,40.33
2023-01-25T21:48:49.114Z,53.15
2023-01-25T21:51:34.645Z,96.97
2023-01-25T21:54:01.545Z,81.65
2023-01-25T21:56:31.333Z,66.88
2023-01-25T21:58:58.048Z,63.00
2023-01-25T22:01:24.830Z,155.73
2023-01-25T22:03:51.755Z,113.97
2023-01-25T22:06:18.991Z,129.23
2023-01-25T22:08:46.131Z,46.95
2023-01-25T22:11:13.074Z,45.13
2023-01-25T22:13:40.153Z,64.78
2023-01-25T22:16:12.831Z,49.80
2023-01-25T22:18:41.865Z,46.33
2023-01-25T22:21:15.659Z,62.80
2023-01-25T22:23:42.846Z,32.63
2023-01-25T22:26:20.524Z,35.47
2023-01-25T22:28:52.249Z,86.57
2023-01-25T22:31:21.756Z,41.80
2023-01-25T22:33:49.183Z,33.70
2023-01-25T22:36:18.111Z,68.72
2023-01-25T22:38:45.131Z,54.25
2023-01-25T22:41:17.245Z,44.40
2023-01-25T22:43:44.379Z,58.95
2023-01-25T22:46:14.151Z,33.75
2023-01-25T22:48:41.088Z,48.35
2023-01-25T22:51:16.888Z,88.57
2023-01-25T22:53:43.785Z,45.90
2023-01-25T22:56:12.851Z,58.97
2023-01-25T22:58:41.401Z,35.60
2023-01-25T23:01:13.489Z,64.28
2023-01-25T23:03:41.293Z,345.25
2023-01-25T23:06:13.450Z,319.48
2023-01-25T23:08:40.808Z,203.75
2023-01-25T23:11:21.496Z,380.02
2023-01-25T23:14:07.122Z,317.60
2023-01-25T23:16:35.137Z,315.98
2023-01-25T23:19:03.236Z,469.02
2023-01-25T23:21:30.619Z,432.05
2023-01-25T23:24:00.699Z,499.95
2023-01-25T23:26:29.263Z,51.85
2023-01-25T23:28:57.570Z,118.97
2023-01-25T23:31:26.034Z,215.70
2023-01-25T23:33:58.490Z,1047.20
2023-01-25T23:36:30.225Z,526.38
2023-01-25T23:38:58.031Z,283.77
2023-01-25T23:41:27.239Z,339.00
2023-01-25T23:43:55.117Z,826.80
2023-01-25T23:46:22.549Z,1230.88
2023-01-25T23:48:49.291Z,253.65
2023-01-25T23:51:17.006Z,606.53
2023-01-25T23:53:44.256Z,854.70
2023-01-25T23:56:15.095Z,1126.05
2023-01-25T23:58:41.826Z,811.58
